createdAt,value
2023-01-27T00:01:22.323Z,-0.15
2023-01-27T00:04:25.000Z,0.02
2023-01-27T00:07:27.598Z,0.05
2023-01-27T00:10:30.305Z,0.04
2023-01-27T00:13:33.824Z,-0.05
2023-01-27T00:16:36.781Z,-0.04
2023-01-27T00:19:39.412Z,-0.05
2023-01-27T00:23:00.468Z,-0.04
2023-01-27T00:26:06.843Z,-0.04
2023-01-27T00:29:09.669Z,-0.07
2023-01-27T00:32:31.085Z,-0.03
2023-01-27T00:35:35.141Z,0.06
2023-01-27T00:38:43.742Z,0.07
2023-01-27T00:41:46.551Z,-0.01
2023-01-27T00:45:07.603Z,0.08
2023-01-27T00:48:10.383Z,0.09
2023-01-27T00:51:14.327Z,0.05
2023-01-27T00:54:17.653Z,-0.07
2023-01-27T00:57:22.015Z,-0.01
2023-01-27T01:00:24.871Z,0.02
2023-01-27T01:03:31.861Z,-0.02
2023-01-27T01:06:34.604Z,-0.01
2023-01-27T01:09:37.178Z,-0.17
2023-01-27T01:12:40.290Z,-0.11
2023-01-27T01:15:43.245Z,-0.07
2023-01-27T01:18:46.480Z,-0.16
2023-01-27T01:21:49.078Z,-0.14
2023-01-27T01:24:51.584Z,-0.09
2023-01-27T01:27:54.332Z,-0.13
2023-01-27T01:30:57.645Z,-0.18
2023-01-27T01:34:01.194Z,-0.14
2023-01-27T01:37:04.517Z,-0.22
2023-01-27T01:40:08.674Z,-0.21
2023-01-27T01:43:18.812Z,-0.20
2023-01-27T01:46:21.676Z,-0.13
2023-01-27T01:49:28.685Z,-0.13
2023-01-27T01:52:31.377Z,-0.14
2023-01-27T01:55:34.874Z,-0.13
2023-01-27T01:58:37.616Z,-0.22
2023-01-27T02:01:43.792Z,-0.21
2023-01-27T02:04:55.822Z,-0.16
2023-01-27T02:08:18.564Z,-0.09
2023-01-27T02:11:24.844Z,-0.17
2023-01-27T02:14:31.241Z,-0.17
2023-01-27T02:17:34.919Z,-0.14
2023-01-27T02:20:44.092Z,-0.21
2023-01-27T02:23:51.308Z,-0.43
2023-01-27T02:26:54.642Z,-0.44
2023-01-27T02:30:00.768Z,-0.43
2023-01-27T02:33:16.427Z,-0.50
2023-01-27T02:36:21.067Z,-0.49
2023-01-27T02:39:33.797Z,-0.54
2023-01-27T02:42:39.318Z,-0.52
2023-01-27T02:45:42.919Z,-0.56
2023-01-27T02:48:46.491Z,-0.53
2023-01-27T02:51:49.954Z,-0.54
2023-01-27T02:54:53.319Z,-0.61
2023-01-27T02:57:56.660Z,-0.59
2023-01-27T03:01:11.579Z,-0.65
2023-01-27T03:04:17.455Z,-0.58
2023-01-27T03:07:21.013Z,-0.63
2023-01-27T03:10:26.391Z,-0.58
2023-01-27T03:13:30.488Z,-0.56
2023-01-27T03:16:52.746Z,-0.60
2023-01-27T03:19:56.261Z,-0.51
2023-01-27T03:23:01.630Z,-0.54
2023-01-27T03:26:13.074Z,-0.56
2023-01-27T03:29:39.032Z,-0.61
2023-01-27T03:32:47.320Z,-0.62
2023-01-27T03:36:37.695Z,-0.63
2023-01-27T03:39:59.487Z,-0.62
2023-01-27T03:43:21.644Z,-0.66
2023-01-27T03:46:25.153Z,-0.64
2023-01-27T03:49:33.860Z,-0.64
2023-01-27T03:52:40.878Z,-0.61
2023-01-27T03:55:44.068Z,-0.68
2023-01-27T03:58:49.574Z,-0.66
2023-01-27T04:01:53.713Z,-0.67
2023-01-27T04:05:15.828Z,-0.60
2023-01-27T04:08:19.285Z,-0.67
2023-01-27T04:11:49.378Z,-0.60
2023-01-27T04:14:55.825Z,-0.60
2023-01-27T04:17:59.625Z,-0.54
2023-01-27T04:21:02.850Z,-0.59
2023-01-27T04:24:17.784Z,-0.58
2023-01-27T04:27:21.405Z,-0.56
2023-01-27T04:30:24.916Z,-0.56
2023-01-27T04:33:28.586Z,-0.49
2023-01-27T04:36:35.564Z,-0.51
2023-01-27T04:39:39.076Z,-0.46
2023-01-27T04:42:42.300Z,-0.45
2023-01-27T04:45:48.434Z,-0.43
2023-01-27T04:48:51.724Z,-0.46
2023-01-27T04:52:00.177Z,-0.38
2023-01-27T04:55:03.868Z,-0.40
2023-01-27T04:58:07.354Z,-0.46
2023-01-27T05:01:11.070Z,-0.41
2023-01-27T05:04:17.058Z,-0.44
2023-01-27T05:07:22.932Z,-0.48
2023-01-27T05:10:29.196Z,-0.48
2023-01-27T05:13:32.836Z,-0.51
2023-01-27T05:16:40.426Z,-0.57
2023-01-27T05:19:44.032Z,-0.51
2023-01-27T05:22:47.805Z,-0.56
2023-01-27T05:25:55.251Z,-0.56
2023-01-27T05:29:01.647Z,-0.58
2023-01-27T05:32:08.591Z,-0.60
2023-01-27T05:35:12.496Z,-0.61
2023-01-27T05:38:16.255Z,-0.57
2023-01-27T05:41:20.606Z,-0.53
2023-01-27T05:44:24.036Z,-0.54
2023-01-27T05:47:30.215Z,-0.52
2023-01-27T05:50:33.641Z,-0.53
2023-01-27T05:53:37.118Z,-0.57
2023-01-27T05:56:41.335Z,-0.51
2023-01-27T05:59:44.523Z,-0.51
2023-01-27T06:02:48.741Z,-0.49
2023-01-27T06:06:00.615Z,-0.61
2023-01-27T06:09:07.163Z,-0.67
2023-01-27T06:12:11.056Z,-0.67
2023-01-27T06:15:14.970Z,-0.64
2023-01-27T06:18:22.670Z,-0.54
2023-01-27T06:21:25.990Z,-0.53
2023-01-27T06:24:29.947Z,-0.58
2023-01-27T06:27:33.412Z,-0.57
2023-01-27T06:30:38.294Z,-0.54
2023-01-27T06:33:42.213Z,-0.56
2023-01-27T06:36:45.639Z,-0.49
2023-01-27T06:39:48.780Z,-0.42
2023-01-27T06:42:52.446Z,-0.39
2023-01-27T06:45:57.921Z,-0.36
2023-01-27T06:49:01.941Z,-0.41
2023-01-27T06:52:05.221Z,-0.44
2023-01-27T06:55:11.545Z,-0.39
2023-01-27T06:58:16.480Z,-0.39
2023-01-27T07:01:20.173Z,-0.47
2023-01-27T07:04:23.789Z,-0.40
2023-01-27T07:07:27.133Z,-0.38
2023-01-27T07:10:30.231Z,-0.49
2023-01-27T07:13:33.942Z,-0.52
2023-01-27T07:16:37.668Z,-0.54
2023-01-27T07:19:41.159Z,-0.52
2023-01-27T07:22:43.901Z,-0.43
2023-01-27T07:25:46.704Z,-0.49
2023-01-27T07:28:49.391Z,-0.52
2023-01-27T07:31:52.235Z,-0.49
2023-01-27T07:34:55.022Z,-0.44
2023-01-27T07:37:58.186Z,-0.48
2023-01-27T07:41:04.632Z,-0.39
2023-01-27T07:44:07.768Z,-0.38
2023-01-27T07:47:11.391Z,-0.40
2023-01-27T07:50:14.719Z,-0.46
2023-01-27T07:53:18.059Z,-0.36
2023-01-27T07:56:22.959Z,-0.41
2023-01-27T07:59:25.799Z,-0.40
2023-01-27T08:02:28.800Z,-0.42
2023-01-27T08:05:33.663Z,-0.35
2023-01-27T08:08:38.101Z,-0.32
2023-01-27T08:11:41.117Z,-0.31
2023-01-27T08:14:43.805Z,-0.36
2023-01-27T08:17:56.792Z,-0.33
2023-01-27T08:21:01.818Z,-0.32
2023-01-27T08:24:04.832Z,-0.38
2023-01-27T08:27:08.376Z,-0.40
2023-01-27T08:30:12.086Z,-0.32
2023-01-27T08:33:14.991Z,-0.43
2023-01-27T08:36:18.960Z,-0.44
2023-01-27T08:39:22.595Z,-0.39
2023-01-27T08:42:25.362Z,-0.37
2023-01-27T08:45:29.807Z,-0.37
2023-01-27T08:48:33.315Z,-0.41
2023-01-27T08:51:36.489Z,-0.35
2023-01-27T08:54:39.199Z,-0.38
2023-01-27T08:57:42.216Z,-0.36
2023-01-27T09:00:46.014Z,-0.40
2023-01-27T09:03:49.078Z,-0.38
2023-01-27T09:06:54.275Z,-0.37
2023-01-27T09:10:12.780Z,-0.21
2023-01-27T09:13:22.494Z,-0.24
2023-01-27T09:16:26.309Z,-0.13
2023-01-27T09:19:29.139Z,-0.06
2023-01-27T09:22:32.046Z,-0.10
2023-01-27T09:25:34.952Z,-0.08
2023-01-27T09:28:37.768Z,-0.08
2023-01-27T09:31:40.881Z,-0.05
2023-01-27T09:34:44.322Z,0.21
2023-01-27T09:37:50.668Z,0.22
2023-01-27T09:41:32.729Z,0.27
2023-01-27T09:44:55.261Z,0.30
2023-01-27T09:48:01.217Z,0.41
2023-01-27T09:51:28.766Z,0.38
2023-01-27T09:55:02.213Z,0.31
2023-01-27T09:58:19.018Z,0.53
2023-01-27T10:01:32.000Z,0.23
2023-01-27T10:04:53.892Z,0.36
2023-01-27T10:08:13.016Z,0.42
2023-01-27T10:11:28.865Z,0.45
2023-01-27T10:14:31.458Z,0.72
2023-01-27T10:18:04.003Z,0.55
2023-01-27T10:21:06.641Z,0.60
2023-01-27T10:24:25.700Z,0.84
2023-01-27T10:27:35.076Z,0.76
2023-01-27T10:30:38.989Z,0.88
2023-01-27T10:33:44.917Z,0.86
2023-01-27T10:37:03.313Z,0.98
2023-01-27T10:40:15.459Z,1.19
2023-01-27T10:43:21.308Z,0.93
2023-01-27T10:46:40.068Z,1.26
2023-01-27T10:50:06.768Z,1.36
2023-01-27T10:53:20.518Z,1.20
2023-01-27T10:56:45.351Z,1.28
2023-01-27T11:00:46.158Z,1.34
2023-01-27T11:03:43.390Z,1.00
2023-01-27T11:06:47.172Z,1.28
2023-01-27T11:10:00.282Z,1.29
2023-01-27T11:13:05.173Z,1.28
2023-01-27T11:16:17.896Z,1.15
2023-01-27T11:19:31.784Z,1.04
2023-01-27T11:22:54.307Z,1.13
2023-01-27T11:26:10.943Z,1.32
2023-01-27T11:29:35.997Z,1.00
2023-01-27T11:32:50.841Z,1.17
2023-01-27T11:35:54.131Z,1.08
2023-01-27T11:38:58.491Z,1.08
2023-01-27T11:42:01.435Z,1.36
2023-01-27T11:45:12.138Z,1.34
2023-01-27T11:48:17.529Z,1.20
2023-01-27T11:51:26.171Z,1.43
2023-01-27T11:54:29.639Z,1.25
2023-01-27T11:57:33.934Z,1.28
2023-01-27T12:01:16.207Z,1.50
2023-01-27T12:04:49.579Z,1.33
2023-01-27T12:07:59.545Z,0.90
2023-01-27T12:11:24.046Z,1.12
2023-01-27T12:14:28.001Z,1.28
2023-01-27T12:17:52.384Z,1.10
2023-01-27T12:21:04.098Z,1.16
2023-01-27T12:24:14.663Z,1.20
2023-01-27T12:27:26.209Z,1.07
2023-01-27T12:30:33.194Z,1.00
2023-01-27T12:33:38.767Z,0.93
2023-01-27T12:36:44.226Z,0.72
2023-01-27T12:39:53.431Z,0.78
2023-01-27T12:43:02.595Z,0.78
2023-01-27T12:46:11.508Z,0.88
2023-01-27T12:49:16.541Z,0.64
2023-01-27T12:52:22.241Z,0.79
2023-01-27T12:55:35.362Z,0.71
2023-01-27T12:58:56.830Z,0.59
2023-01-27T13:02:12.706Z,0.54
2023-01-27T13:05:19.058Z,0.53
2023-01-27T13:08:22.370Z,0.45
2023-01-27T13:11:38.494Z,0.45
2023-01-27T13:14:42.768Z,0.39
2023-01-27T13:17:49.380Z,0.47
2023-01-27T13:20:57.574Z,0.55
2023-01-27T13:24:04.325Z,0.61
2023-01-27T13:27:14.456Z,0.64
2023-01-27T13:30:29.127Z,0.73
2023-01-27T13:34:08.142Z,0.62
2023-01-27T13:37:18.672Z,0.78
2023-01-27T13:40:44.599Z,0.67
2023-01-27T13:43:56.843Z,0.82
2023-01-27T13:47:05.034Z,0.95
2023-01-27T13:50:29.054Z,0.77
2023-01-27T13:53:32.814Z,0.84
2023-01-27T13:56:38.742Z,0.75
2023-01-27T14:00:15.619Z,0.91
2023-01-27T14:03:27.833Z,1.04
2023-01-27T14:06:46.343Z,1.06
2023-01-27T14:10:01.487Z,0.89
2023-01-27T14:13:22.899Z,0.90
2023-01-27T14:16:41.837Z,1.08
2023-01-27T14:20:08.997Z,1.09
2023-01-27T14:23:18.071Z,0.79
2023-01-27T14:26:21.361Z,0.68
2023-01-27T14:29:58.782Z,0.72
2023-01-27T14:33:04.379Z,0.65
2023-01-27T14:36:23.181Z,0.56
2023-01-27T14:39:45.084Z,0.75
2023-01-27T14:43:08.496Z,0.80
2023-01-27T14:46:18.738Z,0.85
2023-01-27T14:49:43.130Z,0.78
2023-01-27T14:53:08.557Z,0.70
2023-01-27T14:56:36.141Z,0.61
2023-01-27T14:59:59.721Z,0.64
2023-01-27T15:03:33.154Z,0.40
2023-01-27T15:06:43.103Z,0.43
2023-01-27T15:10:05.085Z,0.40
2023-01-27T15:13:28.440Z,0.27
2023-01-27T15:16:42.487Z,0.14
2023-01-27T15:19:45.341Z,0.07
2023-01-27T15:23:02.987Z,0.10
2023-01-27T15:26:07.284Z,-0.09
2023-01-27T15:29:23.355Z,-0.08
2023-01-27T15:32:28.750Z,-0.04
2023-01-27T15:35:34.159Z,-0.13
2023-01-27T15:38:37.736Z,-0.06
2023-01-27T15:42:02.838Z,-0.14
2023-01-27T15:45:05.908Z,-0.22
2023-01-27T15:48:13.032Z,-0.14
2023-01-27T15:51:20.027Z,-0.27
2023-01-27T15:54:32.671Z,-0.30
2023-01-27T15:57:39.392Z,-0.40
2023-01-27T16:00:43.276Z,-0.35
2023-01-27T16:03:48.838Z,-0.36
2023-01-27T16:07:02.678Z,-0.32
2023-01-27T16:10:09.013Z,-0.39
2023-01-27T16:13:23.654Z,-0.35
2023-01-27T16:16:31.614Z,-0.35
2023-01-27T16:19:39.729Z,-0.34
2023-01-27T16:22:44.938Z,-0.41
2023-01-27T16:26:08.883Z,-0.39
2023-01-27T16:29:47.125Z,-0.36
2023-01-27T16:33:04.867Z,-0.35
2023-01-27T16:36:09.410Z,-0.44
2023-01-27T16:39:18.869Z,-0.32
2023-01-27T16:42:30.103Z,-0.45
2023-01-27T16:45:43.901Z,-0.49
2023-01-27T16:48:48.407Z,-0.50
2023-01-27T16:51:59.530Z,-0.45
2023-01-27T16:55:03.399Z,-0.40
2023-01-27T16:58:06.780Z,-0.38
2023-01-27T17:01:20.505Z,-0.34
2023-01-27T17:04:25.866Z,-0.32
2023-01-27T17:07:29.272Z,-0.42
2023-01-27T17:10:35.092Z,-0.42
2023-01-27T17:13:51.814Z,-0.36
2023-01-27T17:16:58.934Z,-0.30
2023-01-27T17:20:04.758Z,-0.37
2023-01-27T17:23:07.881Z,-0.33
2023-01-27T17:26:16.859Z,-0.31
2023-01-27T17:29:22.432Z,-0.41
2023-01-27T17:32:27.416Z,-0.27
2023-01-27T17:35:34.172Z,-0.29
2023-01-27T17:38:49.261Z,-0.35
2023-01-27T17:41:56.140Z,-0.31
2023-01-27T17:45:21.473Z,-0.26
2023-01-27T17:48:24.706Z,-0.33
2023-01-27T17:51:34.598Z,-0.30
2023-01-27T17:54:43.777Z,-0.48
2023-01-27T17:57:49.985Z,-0.45
2023-01-27T18:00:54.496Z,-0.56
2023-01-27T18:03:58.639Z,-0.65
2023-01-27T18:07:01.799Z,-0.65
2023-01-27T18:10:22.922Z,-0.71
2023-01-27T18:13:27.551Z,-0.64
2023-01-27T18:16:30.855Z,-0.61
2023-01-27T18:19:34.651Z,-0.58
2023-01-27T18:22:43.838Z,-0.59
2023-01-27T18:25:51.562Z,-0.62
2023-01-27T18:29:04.406Z,-0.64
2023-01-27T18:32:11.161Z,-0.72
2023-01-27T18:35:26.571Z,-0.62
2023-01-27T18:38:33.222Z,-0.57
2023-01-27T18:41:38.579Z,-0.61
2023-01-27T18:44:41.823Z,-0.52
2023-01-27T18:47:48.373Z,-0.61
2023-01-27T18:50:51.612Z,-0.61
2023-01-27T18:53:54.814Z,-0.61
2023-01-27T18:56:57.695Z,-0.64
2023-01-27T19:00:01.320Z,-0.61
2023-01-27T19:03:06.130Z,-0.63
2023-01-27T19:06:16.048Z,-0.52
2023-01-27T19:09:19.542Z,-0.56
2023-01-27T19:12:22.615Z,-0.60
2023-01-27T19:15:35.050Z,-0.54
2023-01-27T19:18:39.177Z,-0.51
2023-01-27T19:21:42.093Z,-0.53
2023-01-27T19:24:50.121Z,-0.61
2023-01-27T19:27:55.804Z,-0.52
2023-01-27T19:31:00.524Z,-0.46
2023-01-27T19:34:04.320Z,-0.46
2023-01-27T19:37:16.951Z,-0.49
2023-01-27T19:40:25.131Z,-0.45
2023-01-27T19:43:28.816Z,-0.47
2023-01-27T19:46:34.117Z,-0.51
2023-01-27T19:49:37.730Z,-0.48
2023-01-27T19:52:41.223Z,-0.43
2023-01-27T19:55:45.792Z,-0.49
2023-01-27T19:58:52.363Z,-0.47
2023-01-27T20:01:57.205Z,-0.49
2023-01-27T20:05:03.392Z,-0.44
2023-01-27T20:08:06.912Z,-0.43
2023-01-27T20:11:35.681Z,-0.41
2023-01-27T20:14:40.373Z,-0.51
2023-01-27T20:17:43.429Z,-0.54
2023-01-27T20:20:47.636Z,-0.57
2023-01-27T20:23:51.712Z,-0.44
2023-01-27T20:26:57.287Z,-0.53
2023-01-27T20:30:01.581Z,-0.56
2023-01-27T20:33:05.402Z,-0.53
2023-01-27T20:36:14.049Z,-0.50
2023-01-27T20:39:17.705Z,-0.38
2023-01-27T20:42:21.301Z,-0.45
2023-01-27T20:45:25.292Z,-0.42
2023-01-27T20:48:28.631Z,-0.48
2023-01-27T20:51:33.890Z,-0.44
2023-01-27T20:54:37.136Z,-0.39
2023-01-27T20:57:40.428Z,-0.50
2023-01-27T21:00:45.155Z,-0.52
2023-01-27T21:03:48.651Z,-0.47
2023-01-27T21:06:54.500Z,-0.44
2023-01-27T21:09:59.738Z,-0.44
2023-01-27T21:13:03.275Z,-0.49
2023-01-27T21:16:06.934Z,-0.51
2023-01-27T21:19:10.327Z,-0.40
2023-01-27T21:22:13.510Z,-0.50
2023-01-27T21:25:17.278Z,-0.42
2023-01-27T21:28:20.873Z,-0.50
2023-01-27T21:31:30.593Z,-0.48
2023-01-27T21:34:34.248Z,-0.56
2023-01-27T21:37:38.810Z,-0.47
2023-01-27T21:40:42.332Z,-0.37
2023-01-27T21:44:04.229Z,-0.38
2023-01-27T21:47:09.733Z,-0.40
2023-01-27T21:50:15.090Z,-0.31
2023-01-27T21:53:18.950Z,-0.30
2023-01-27T21:56:24.328Z,-0.38
2023-01-27T21:59:27.807Z,-0.27
2023-01-27T22:02:31.290Z,-0.29
2023-01-27T22:05:36.801Z,-0.22
2023-01-27T22:08:39.917Z,-0.32
2023-01-27T22:11:43.072Z,-0.31
2023-01-27T22:14:45.939Z,-0.22
2023-01-27T22:17:49.051Z,-0.26
2023-01-27T22:20:52.078Z,-0.32
2023-01-27T22:23:55.085Z,-0.40
2023-01-27T22:26:58.252Z,-0.49
2023-01-27T22:30:01.093Z,-0.41
2023-01-27T22:33:04.561Z,-0.47
2023-01-27T22:36:07.777Z,-0.57
2023-01-27T22:39:11.348Z,-0.80
2023-01-27T22:42:14.188Z,-0.64
2023-01-27T22:45:17.589Z,-0.74
2023-01-27T22:48:20.766Z,-0.85
2023-01-27T22:51:24.219Z,-0.77
2023-01-27T22:54:27.205Z,-0.86
2023-01-27T22:57:32.145Z,-0.83
2023-01-27T23:00:38.259Z,-0.86
2023-01-27T23:03:41.387Z,-0.76
2023-01-27T23:06:44.396Z,-0.85
2023-01-27T23:09:47.040Z,-0.62
2023-01-27T23:12:49.601Z,-0.72
2023-01-27T23:15:52.751Z,-0.78
2023-01-27T23:18:55.715Z,-0.70
2023-01-27T23:21:58.479Z,-0.75
2023-01-27T23:25:01.273Z,-0.62
2023-01-27T23:28:04.006Z,-0.47
2023-01-27T23:31:11.872Z,-0.65
2023-01-27T23:34:14.557Z,-0.56
2023-01-27T23:37:17.604Z,-0.72
2023-01-27T23:40:20.402Z,-0.66
2023-01-27T23:43:24.492Z,-0.56
2023-01-27T23:46:28.246Z,-0.61
2023-01-27T23:49:30.992Z,-0.48
2023-01-27T23:52:36.566Z,-0.73
2023-01-27T23:55:39.564Z,-0.68
2023-01-27T23:58:43.431Z,-0.57
